PAQT

Nuiqsut Airport

Nuiqsut, Alaska, USA
PAQT 191138Z 1912/2012 09008KT P6SM VCFG SCT008 FM200000 06008KT P6SM VCFG SCT008
Issued Valid From Valid To
Sep-19 @ 11:38 UTC
(2 hours ago)
Sep-19 @ 12:00 UTC
(an hour ago)
Sep-20 @ 12:00 UTC
(in 23 hours)
Sep-19 @ 12:00 to Sep-20 @ 00:00
PAQT 191138Z 1912/2012 09008KT P6SM VCFG SCT008
Wind Visibility Clouds Conditions
90° at 8 knots Greater than 6 miles
  • Scattered at 800' AGL
  • Area Fog
From Sep-20 @ 00:00 to Sep-20 @ 12:00
FM200000 06008KT P6SM VCFG SCT008
Wind Visibility Clouds Conditions
60° at 8 knots Greater than 6 miles
  • Scattered at 800' AGL
  • Area Fog
PAQT 191138Z 1912/2012 09008KT P6SM VCFG SCT008 FM200000 06008KT P6SM VCFG SCT008
Issued Sep-19 @ 11:38 UTC
(2 hours ago)
Valid From Sep-19 @ 12:00 UTC
(an hour ago)
Valid To Sep-20 @ 12:00 UTC
(in 23 hours)
Sep-19 @ 12:00 - Sep-20 @ 00:00
Wind Visibility
90° at 8 knots Greater than 6 miles
Clouds
  • Scattered at 800' AGL
Conditions
  • Area Fog
From Sep-20 @ 00:00 - Sep-20 @ 12:00
Wind Visibility
60° at 8 knots Greater than 6 miles
Clouds
  • Scattered at 800' AGL
Conditions
  • Area Fog